sensor_id;sensor_type;location;lat;lon;timestamp;P1;durP1;ratioP1;P2;durP2;ratioP2
75542;SDS011;64129;53.508;10.476;2023-02-23T00:01:38;14.50;;;6.60;;
75542;SDS011;64129;53.508;10.476;2023-02-23T00:04:06;17.95;;;7.93;;
75542;SDS011;64129;53.508;10.476;2023-02-23T00:06:34;15.45;;;6.85;;
75542;SDS011;64129;53.508;10.476;2023-02-23T00:09:02;16.55;;;7.35;;
75542;SDS011;64129;53.508;10.476;2023-02-23T00:11:51;13.02;;;6.32;;
75542;SDS011;64129;53.508;10.476;2023-02-23T00:14:19;15.40;;;7.65;;
75542;SDS011;64129;53.508;10.476;2023-02-23T00:16:49;12.63;;;6.43;;
75542;SDS011;64129;53.508;10.476;2023-02-23T00:19:16;14.48;;;6.18;;
75542;SDS011;64129;53.508;10.476;2023-02-23T00:21:42;15.60;;;5.88;;
75542;SDS011;64129;53.508;10.476;2023-02-23T00:24:11;13.60;;;6.10;;
75542;SDS011;64129;53.508;10.476;2023-02-23T00:26:40;19.10;;;6.70;;
75542;SDS011;64129;53.508;10.476;2023-02-23T00:29:09;14.00;;;5.80;;
75542;SDS011;64129;53.508;10.476;2023-02-23T00:31:45;12.68;;;5.80;;
75542;SDS011;64129;53.508;10.476;2023-02-23T00:34:14;13.25;;;5.47;;
75542;SDS011;64129;53.508;10.476;2023-02-23T00:36:48;11.52;;;5.80;;
75542;SDS011;64129;53.508;10.476;2023-02-23T00:39:20;11.27;;;6.18;;
75542;SDS011;64129;53.508;10.476;2023-02-23T00:41:52;11.90;;;6.45;;
75542;SDS011;64129;53.508;10.476;2023-02-23T00:44:20;13.38;;;5.82;;
75542;SDS011;64129;53.508;10.476;2023-02-23T00:49:17;14.75;;;6.05;;
75542;SDS011;64129;53.508;10.476;2023-02-23T00:51:44;13.30;;;5.07;;
75542;SDS011;64129;53.508;10.476;2023-02-23T00:54:12;11.20;;;5.88;;
75542;SDS011;64129;53.508;10.476;2023-02-23T00:56:40;14.85;;;5.82;;
75542;SDS011;64129;53.508;10.476;2023-02-23T00:59:07;19.50;;;6.15;;
75542;SDS011;64129;53.508;10.476;2023-02-23T01:01:34;14.05;;;6.22;;
75542;SDS011;64129;53.508;10.476;2023-02-23T01:04:02;12.68;;;5.07;;
75542;SDS011;64129;53.508;10.476;2023-02-23T01:06:29;16.73;;;5.60;;
75542;SDS011;64129;53.508;10.476;2023-02-23T01:08:56;15.25;;;5.82;;
75542;SDS011;64129;53.508;10.476;2023-02-23T01:11:25;19.38;;;5.85;;
75542;SDS011;64129;53.508;10.476;2023-02-23T01:13:54;17.45;;;5.65;;
75542;SDS011;64129;53.508;10.476;2023-02-23T01:16:24;16.02;;;6.97;;
75542;SDS011;64129;53.508;10.476;2023-02-23T01:18:54;13.45;;;5.78;;
75542;SDS011;64129;53.508;10.476;2023-02-23T01:21:24;11.18;;;5.10;;
75542;SDS011;64129;53.508;10.476;2023-02-23T01:23:53;13.32;;;5.55;;
75542;SDS011;64129;53.508;10.476;2023-02-23T01:26:21;14.05;;;5.40;;
75542;SDS011;64129;53.508;10.476;2023-02-23T01:28:57;12.35;;;5.00;;
75542;SDS011;64129;53.508;10.476;2023-02-23T01:31:26;11.75;;;5.25;;
75542;SDS011;64129;53.508;10.476;2023-02-23T01:33:55;13.35;;;5.85;;
75542;SDS011;64129;53.508;10.476;2023-02-23T01:36:23;12.25;;;5.55;;
75542;SDS011;64129;53.508;10.476;2023-02-23T01:38:51;13.15;;;5.00;;
75542;SDS011;64129;53.508;10.476;2023-02-23T01:41:21;12.73;;;6.57;;
75542;SDS011;64129;53.508;10.476;2023-02-23T01:44:03;15.15;;;5.10;;
75542;SDS011;64129;53.508;10.476;2023-02-23T01:46:37;18.33;;;5.43;;
75542;SDS011;64129;53.508;10.476;2023-02-23T01:49:07;15.13;;;5.00;;
75542;SDS011;64129;53.508;10.476;2023-02-23T01:51:42;18.35;;;5.90;;
75542;SDS011;64129;53.508;10.476;2023-02-23T01:54:15;12.63;;;5.03;;
75542;SDS011;64129;53.508;10.476;2023-02-23T01:56:48;15.15;;;5.43;;
75542;SDS011;64129;53.508;10.476;2023-02-23T01:59:24;11.48;;;5.03;;
75542;SDS011;64129;53.508;10.476;2023-02-23T02:01:57;10.68;;;5.60;;
75542;SDS011;64129;53.508;10.476;2023-02-23T02:04:24;15.82;;;5.22;;
75542;SDS011;64129;53.508;10.476;2023-02-23T02:06:51;8.85;;;4.40;;
75542;SDS011;64129;53.508;10.476;2023-02-23T02:09:21;13.48;;;5.70;;
75542;SDS011;64129;53.508;10.476;2023-02-23T02:11:53;11.35;;;5.15;;
75542;SDS011;64129;53.508;10.476;2023-02-23T02:14:28;12.80;;;5.60;;
75542;SDS011;64129;53.508;10.476;2023-02-23T02:28:04;12.65;;;5.43;;
75542;SDS011;64129;53.508;10.476;2023-02-23T02:42:55;12.70;;;4.68;;
75542;SDS011;64129;53.508;10.476;2023-02-23T02:53:57;10.43;;;4.38;;
75542;SDS011;64129;53.508;10.476;2023-02-23T02:56:36;8.95;;;4.13;;
75542;SDS011;64129;53.508;10.476;2023-02-23T02:59:10;11.73;;;4.50;;
75542;SDS011;64129;53.508;10.476;2023-02-23T03:01:58;13.32;;;5.50;;
75542;SDS011;64129;53.508;10.476;2023-02-23T03:04:43;12.57;;;4.50;;
75542;SDS011;64129;53.508;10.476;2023-02-23T03:13:25;10.30;;;4.05;;
75542;SDS011;64129;53.508;10.476;2023-02-23T03:16:27;15.85;;;4.15;;
75542;SDS011;64129;53.508;10.476;2023-02-23T03:19:22;14.00;;;4.38;;
75542;SDS011;64129;53.508;10.476;2023-02-23T03:22:22;10.38;;;4.45;;
75542;SDS011;64129;53.508;10.476;2023-02-23T03:28:12;13.05;;;4.68;;
75542;SDS011;64129;53.508;10.476;2023-02-23T03:34:21;10.18;;;4.10;;
75542;SDS011;64129;53.508;10.476;2023-02-23T03:40:12;13.75;;;4.97;;
75542;SDS011;64129;53.508;10.476;2023-02-23T03:43:04;14.23;;;5.30;;
75542;SDS011;64129;53.508;10.476;2023-02-23T03:45:54;13.35;;;4.55;;
75542;SDS011;64129;53.508;10.476;2023-02-23T03:48:42;12.60;;;5.70;;
75542;SDS011;64129;53.508;10.476;2023-02-23T03:51:30;14.93;;;4.60;;
75542;SDS011;64129;53.508;10.476;2023-02-23T03:54:30;16.25;;;4.88;;
75542;SDS011;64129;53.508;10.476;2023-02-23T03:57:19;12.13;;;4.75;;
75542;SDS011;64129;53.508;10.476;2023-02-23T04:00:07;12.77;;;4.55;;
75542;SDS011;64129;53.508;10.476;2023-02-23T04:02:55;14.23;;;5.43;;
75542;SDS011;64129;53.508;10.476;2023-02-23T04:05:44;16.73;;;5.25;;
75542;SDS011;64129;53.508;10.476;2023-02-23T04:08:31;14.40;;;5.47;;
75542;SDS011;64129;53.508;10.476;2023-02-23T04:11:22;15.73;;;5.70;;
75542;SDS011;64129;53.508;10.476;2023-02-23T04:14:16;13.80;;;5.78;;
75542;SDS011;64129;53.508;10.476;2023-02-23T04:16:48;19.52;;;6.68;;
75542;SDS011;64129;53.508;10.476;2023-02-23T04:19:15;20.92;;;7.60;;
75542;SDS011;64129;53.508;10.476;2023-02-23T04:21:42;19.08;;;6.90;;
75542;SDS011;64129;53.508;10.476;2023-02-23T04:24:09;19.77;;;6.72;;
75542;SDS011;64129;53.508;10.476;2023-02-23T04:26:36;15.43;;;6.00;;
75542;SDS011;64129;53.508;10.476;2023-02-23T04:29:03;15.45;;;6.43;;
75542;SDS011;64129;53.508;10.476;2023-02-23T04:31:29;18.23;;;7.10;;
75542;SDS011;64129;53.508;10.476;2023-02-23T04:33:56;20.45;;;7.47;;
75542;SDS011;64129;53.508;10.476;2023-02-23T04:36:22;16.92;;;6.82;;
75542;SDS011;64129;53.508;10.476;2023-02-23T04:38:50;20.08;;;7.85;;
75542;SDS011;64129;53.508;10.476;2023-02-23T04:41:16;20.13;;;7.07;;
75542;SDS011;64129;53.508;10.476;2023-02-23T04:43:44;19.05;;;6.70;;
75542;SDS011;64129;53.508;10.476;2023-02-23T04:46:10;16.52;;;6.78;;
75542;SDS011;64129;53.508;10.476;2023-02-23T04:48:37;16.95;;;7.57;;
75542;SDS011;64129;53.508;10.476;2023-02-23T04:51:04;19.27;;;7.82;;
75542;SDS011;64129;53.508;10.476;2023-02-23T04:53:30;22.27;;;8.10;;
75542;SDS011;64129;53.508;10.476;2023-02-23T04:55:57;20.15;;;8.35;;
75542;SDS011;64129;53.508;10.476;2023-02-23T04:58:24;26.73;;;9.82;;
75542;SDS011;64129;53.508;10.476;2023-02-23T05:00:50;24.33;;;8.80;;
75542;SDS011;64129;53.508;10.476;2023-02-23T05:03:17;23.90;;;9.85;;
75542;SDS011;64129;53.508;10.476;2023-02-23T05:05:43;27.45;;;9.65;;
75542;SDS011;64129;53.508;10.476;2023-02-23T05:08:10;22.80;;;8.57;;
75542;SDS011;64129;53.508;10.476;2023-02-23T05:10:37;25.35;;;9.85;;
75542;SDS011;64129;53.508;10.476;2023-02-23T05:13:05;27.52;;;11.20;;
75542;SDS011;64129;53.508;10.476;2023-02-23T05:15:31;23.00;;;10.38;;
75542;SDS011;64129;53.508;10.476;2023-02-23T05:17:58;27.20;;;10.05;;
75542;SDS011;64129;53.508;10.476;2023-02-23T05:20:24;27.52;;;10.63;;
75542;SDS011;64129;53.508;10.476;2023-02-23T05:22:52;27.40;;;9.82;;
75542;SDS011;64129;53.508;10.476;2023-02-23T05:25:18;27.75;;;10.43;;
75542;SDS011;64129;53.508;10.476;2023-02-23T05:27:45;27.25;;;9.80;;
75542;SDS011;64129;53.508;10.476;2023-02-23T05:30:11;26.27;;;10.40;;
75542;SDS011;64129;53.508;10.476;2023-02-23T05:32:38;25.15;;;10.05;;
75542;SDS011;64129;53.508;10.476;2023-02-23T05:35:05;23.65;;;10.43;;
75542;SDS011;64129;53.508;10.476;2023-02-23T05:37:32;25.17;;;10.60;;
75542;SDS011;64129;53.508;10.476;2023-02-23T05:39:59;31.13;;;10.48;;
75542;SDS011;64129;53.508;10.476;2023-02-23T05:42:26;28.48;;;11.05;;
75542;SDS011;64129;53.508;10.476;2023-02-23T05:44:52;33.22;;;11.35;;
75542;SDS011;64129;53.508;10.476;2023-02-23T05:47:19;28.00;;;10.40;;
75542;SDS011;64129;53.508;10.476;2023-02-23T05:49:45;32.65;;;10.30;;
75542;SDS011;64129;53.508;10.476;2023-02-23T05:52:12;28.05;;;9.80;;
75542;SDS011;64129;53.508;10.476;2023-02-23T05:54:38;28.85;;;10.40;;
75542;SDS011;64129;53.508;10.476;2023-02-23T05:57:05;30.15;;;10.95;;
75542;SDS011;64129;53.508;10.476;2023-02-23T05:59:32;29.08;;;10.60;;
75542;SDS011;64129;53.508;10.476;2023-02-23T06:01:58;27.10;;;10.00;;
75542;SDS011;64129;53.508;10.476;2023-02-23T06:04:25;25.10;;;10.70;;
75542;SDS011;64129;53.508;10.476;2023-02-23T06:06:51;26.63;;;9.52;;
75542;SDS011;64129;53.508;10.476;2023-02-23T06:09:17;26.02;;;10.55;;
75542;SDS011;64129;53.508;10.476;2023-02-23T06:11:44;25.63;;;9.93;;
75542;SDS011;64129;53.508;10.476;2023-02-23T06:14:11;30.88;;;10.18;;
75542;SDS011;64129;53.508;10.476;2023-02-23T06:16:37;22.48;;;11.00;;
75542;SDS011;64129;53.508;10.476;2023-02-23T06:19:04;26.70;;;10.27;;
75542;SDS011;64129;53.508;10.476;2023-02-23T06:21:31;28.63;;;10.93;;
75542;SDS011;64129;53.508;10.476;2023-02-23T06:23:58;29.25;;;10.30;;
75542;SDS011;64129;53.508;10.476;2023-02-23T06:26:26;27.17;;;10.48;;
75542;SDS011;64129;53.508;10.476;2023-02-23T06:28:53;27.52;;;10.68;;
75542;SDS011;64129;53.508;10.476;2023-02-23T06:31:19;28.40;;;11.13;;
75542;SDS011;64129;53.508;10.476;2023-02-23T06:33:46;29.10;;;11.07;;
75542;SDS011;64129;53.508;10.476;2023-02-23T06:36:13;25.67;;;11.15;;
75542;SDS011;64129;53.508;10.476;2023-02-23T06:38:40;27.52;;;11.25;;
75542;SDS011;64129;53.508;10.476;2023-02-23T06:41:10;26.27;;;11.65;;
75542;SDS011;64129;53.508;10.476;2023-02-23T06:43:37;29.35;;;11.23;;
75542;SDS011;64129;53.508;10.476;2023-02-23T06:46:04;36.55;;;12.27;;
75542;SDS011;64129;53.508;10.476;2023-02-23T06:48:31;29.35;;;11.95;;
75542;SDS011;64129;53.508;10.476;2023-02-23T06:50:58;43.97;;;13.65;;
75542;SDS011;64129;53.508;10.476;2023-02-23T06:53:25;30.67;;;11.43;;
75542;SDS011;64129;53.508;10.476;2023-02-23T06:55:52;32.03;;;11.45;;
75542;SDS011;64129;53.508;10.476;2023-02-23T06:58:18;28.13;;;11.95;;
75542;SDS011;64129;53.508;10.476;2023-02-23T07:00:45;34.90;;;13.18;;
75542;SDS011;64129;53.508;10.476;2023-02-23T07:03:11;31.10;;;12.43;;
75542;SDS011;64129;53.508;10.476;2023-02-23T07:05:38;31.58;;;12.50;;
75542;SDS011;64129;53.508;10.476;2023-02-23T07:08:06;34.67;;;12.93;;
75542;SDS011;64129;53.508;10.476;2023-02-23T07:10:32;37.13;;;13.85;;
75542;SDS011;64129;53.508;10.476;2023-02-23T07:13:00;34.83;;;12.77;;
75542;SDS011;64129;53.508;10.476;2023-02-23T07:15:26;31.00;;;12.20;;
75542;SDS011;64129;53.508;10.476;2023-02-23T07:17:53;34.58;;;13.65;;
75542;SDS011;64129;53.508;10.476;2023-02-23T07:20:19;31.70;;;12.60;;
75542;SDS011;64129;53.508;10.476;2023-02-23T07:22:46;34.05;;;14.05;;
75542;SDS011;64129;53.508;10.476;2023-02-23T07:25:12;33.97;;;13.07;;
75542;SDS011;64129;53.508;10.476;2023-02-23T07:27:39;32.88;;;12.45;;
75542;SDS011;64129;53.508;10.476;2023-02-23T07:30:07;28.88;;;12.63;;
75542;SDS011;64129;53.508;10.476;2023-02-23T07:32:34;33.25;;;13.73;;
75542;SDS011;64129;53.508;10.476;2023-02-23T07:35:02;32.45;;;12.88;;
75542;SDS011;64129;53.508;10.476;2023-02-23T07:39:56;33.17;;;12.80;;
75542;SDS011;64129;53.508;10.476;2023-02-23T07:42:25;34.58;;;13.50;;
75542;SDS011;64129;53.508;10.476;2023-02-23T07:44:52;35.50;;;13.70;;
75542;SDS011;64129;53.508;10.476;2023-02-23T07:47:19;39.40;;;15.38;;
75542;SDS011;64129;53.508;10.476;2023-02-23T07:49:45;46.63;;;14.52;;
75542;SDS011;64129;53.508;10.476;2023-02-23T07:52:15;38.05;;;15.18;;
75542;SDS011;64129;53.508;10.476;2023-02-23T07:54:44;51.30;;;15.48;;
75542;SDS011;64129;53.508;10.476;2023-02-23T07:57:11;44.10;;;16.60;;
75542;SDS011;64129;53.508;10.476;2023-02-23T07:59:38;51.33;;;17.55;;
75542;SDS011;64129;53.508;10.476;2023-02-23T08:02:04;55.97;;;18.92;;
75542;SDS011;64129;53.508;10.476;2023-02-23T08:04:32;47.22;;;16.75;;
75542;SDS011;64129;53.508;10.476;2023-02-23T08:06:58;52.97;;;18.25;;
75542;SDS011;64129;53.508;10.476;2023-02-23T08:09:25;57.80;;;19.23;;
75542;SDS011;64129;53.508;10.476;2023-02-23T08:11:51;58.08;;;19.40;;
75542;SDS011;64129;53.508;10.476;2023-02-23T08:14:18;61.65;;;19.85;;
75542;SDS011;64129;53.508;10.476;2023-02-23T08:16:48;68.03;;;21.75;;
75542;SDS011;64129;53.508;10.476;2023-02-23T08:19:16;71.50;;;22.23;;
75542;SDS011;64129;53.508;10.476;2023-02-23T08:21:43;68.32;;;20.40;;
75542;SDS011;64129;53.508;10.476;2023-02-23T08:24:10;68.57;;;21.58;;
75542;SDS011;64129;53.508;10.476;2023-02-23T08:26:36;63.10;;;19.95;;
75542;SDS011;64129;53.508;10.476;2023-02-23T08:29:03;66.78;;;19.50;;
75542;SDS011;64129;53.508;10.476;2023-02-23T08:31:30;61.00;;;21.27;;
75542;SDS011;64129;53.508;10.476;2023-02-23T08:33:57;74.13;;;21.25;;
75542;SDS011;64129;53.508;10.476;2023-02-23T08:36:23;68.43;;;21.67;;
75542;SDS011;64129;53.508;10.476;2023-02-23T08:38:50;67.15;;;20.88;;
75542;SDS011;64129;53.508;10.476;2023-02-23T08:41:17;78.95;;;21.98;;
75542;SDS011;64129;53.508;10.476;2023-02-23T08:43:43;75.13;;;22.80;;
75542;SDS011;64129;53.508;10.476;2023-02-23T08:46:10;70.75;;;21.33;;
75542;SDS011;64129;53.508;10.476;2023-02-23T08:48:37;70.68;;;20.02;;
75542;SDS011;64129;53.508;10.476;2023-02-23T08:51:05;62.78;;;22.30;;
75542;SDS011;64129;53.508;10.476;2023-02-23T08:53:32;71.82;;;21.80;;
75542;SDS011;64129;53.508;10.476;2023-02-23T08:56:00;61.13;;;19.50;;
75542;SDS011;64129;53.508;10.476;2023-02-23T08:58:29;76.03;;;22.77;;
75542;SDS011;64129;53.508;10.476;2023-02-23T09:00:56;73.47;;;22.42;;
75542;SDS011;64129;53.508;10.476;2023-02-23T09:03:24;74.43;;;22.35;;
75542;SDS011;64129;53.508;10.476;2023-02-23T09:05:51;79.88;;;23.92;;
75542;SDS011;64129;53.508;10.476;2023-02-23T09:08:18;74.60;;;23.98;;
75542;SDS011;64129;53.508;10.476;2023-02-23T09:10:45;80.28;;;23.10;;
75542;SDS011;64129;53.508;10.476;2023-02-23T09:13:11;81.20;;;23.67;;
75542;SDS011;64129;53.508;10.476;2023-02-23T09:15:39;77.55;;;22.25;;
75542;SDS011;64129;53.508;10.476;2023-02-23T09:18:07;70.45;;;22.33;;
75542;SDS011;64129;53.508;10.476;2023-02-23T09:20:36;56.13;;;21.40;;
75542;SDS011;64129;53.508;10.476;2023-02-23T09:23:06;69.75;;;23.08;;
75542;SDS011;64129;53.508;10.476;2023-02-23T09:25:33;62.22;;;21.50;;
75542;SDS011;64129;53.508;10.476;2023-02-23T09:27:59;72.80;;;22.08;;
75542;SDS011;64129;53.508;10.476;2023-02-23T09:30:26;66.15;;;22.73;;
75542;SDS011;64129;53.508;10.476;2023-02-23T09:32:53;63.22;;;22.30;;
75542;SDS011;64129;53.508;10.476;2023-02-23T09:35:22;65.72;;;20.77;;
75542;SDS011;64129;53.508;10.476;2023-02-23T09:37:51;65.40;;;21.25;;
75542;SDS011;64129;53.508;10.476;2023-02-23T09:40:23;66.82;;;22.52;;
75542;SDS011;64129;53.508;10.476;2023-02-23T09:45:34;62.20;;;21.00;;
75542;SDS011;64129;53.508;10.476;2023-02-23T09:50:30;59.42;;;20.30;;
75542;SDS011;64129;53.508;10.476;2023-02-23T09:55:50;49.08;;;18.98;;
75542;SDS011;64129;53.508;10.476;2023-02-23T09:58:21;49.40;;;19.08;;
75542;SDS011;64129;53.508;10.476;2023-02-23T10:06:19;39.05;;;16.83;;
75542;SDS011;64129;53.508;10.476;2023-02-23T10:08:54;44.50;;;17.65;;
75542;SDS011;64129;53.508;10.476;2023-02-23T10:11:43;40.15;;;17.00;;
75542;SDS011;64129;53.508;10.476;2023-02-23T10:17:16;35.72;;;15.35;;
75542;SDS011;64129;53.508;10.476;2023-02-23T10:20:12;31.58;;;15.77;;
75542;SDS011;64129;53.508;10.476;2023-02-23T10:22:48;32.90;;;14.52;;
75542;SDS011;64129;53.508;10.476;2023-02-23T10:25:18;31.65;;;14.75;;
75542;SDS011;64129;53.508;10.476;2023-02-23T10:27:49;35.80;;;14.05;;
75542;SDS011;64129;53.508;10.476;2023-02-23T10:30:23;29.83;;;14.35;;
75542;SDS011;64129;53.508;10.476;2023-02-23T10:32:54;31.55;;;15.20;;
75542;SDS011;64129;53.508;10.476;2023-02-23T10:35:27;26.23;;;13.68;;
75542;SDS011;64129;53.508;10.476;2023-02-23T10:37:55;30.98;;;15.52;;
75542;SDS011;64129;53.508;10.476;2023-02-23T10:40:24;34.03;;;16.17;;
75542;SDS011;64129;53.508;10.476;2023-02-23T10:42:54;32.63;;;15.85;;
75542;SDS011;64129;53.508;10.476;2023-02-23T10:45:23;36.22;;;16.38;;
75542;SDS011;64129;53.508;10.476;2023-02-23T10:47:52;37.20;;;18.23;;
75542;SDS011;64129;53.508;10.476;2023-02-23T10:50:23;38.00;;;17.80;;
75542;SDS011;64129;53.508;10.476;2023-02-23T10:52:56;40.03;;;17.50;;
75542;SDS011;64129;53.508;10.476;2023-02-23T10:55:42;34.90;;;15.23;;
75542;SDS011;64129;53.508;10.476;2023-02-23T10:58:11;43.13;;;19.13;;
75542;SDS011;64129;53.508;10.476;2023-02-23T11:03:35;41.40;;;20.38;;
75542;SDS011;64129;53.508;10.476;2023-02-23T11:06:25;46.72;;;20.08;;
75542;SDS011;64129;53.508;10.476;2023-02-23T11:09:15;48.15;;;20.25;;
75542;SDS011;64129;53.508;10.476;2023-02-23T11:12:00;49.47;;;19.13;;
75542;SDS011;64129;53.508;10.476;2023-02-23T11:14:29;51.42;;;20.58;;
75542;SDS011;64129;53.508;10.476;2023-02-23T11:16:57;57.97;;;21.42;;
75542;SDS011;64129;53.508;10.476;2023-02-23T11:19:28;66.40;;;24.20;;
75542;SDS011;64129;53.508;10.476;2023-02-23T11:22:05;51.97;;;18.30;;
75542;SDS011;64129;53.508;10.476;2023-02-23T11:24:36;71.28;;;23.38;;
75542;SDS011;64129;53.508;10.476;2023-02-23T11:27:06;70.45;;;23.85;;
75542;SDS011;64129;53.508;10.476;2023-02-23T11:29:48;67.45;;;22.30;;
75542;SDS011;64129;53.508;10.476;2023-02-23T11:32:28;67.47;;;23.52;;
75542;SDS011;64129;53.508;10.476;2023-02-23T11:35:12;74.72;;;25.33;;
75542;SDS011;64129;53.508;10.476;2023-02-23T11:37:46;72.97;;;23.23;;
75542;SDS011;64129;53.508;10.476;2023-02-23T11:40:19;69.18;;;24.02;;
75542;SDS011;64129;53.508;10.476;2023-02-23T11:45:30;74.95;;;24.10;;
75542;SDS011;64129;53.508;10.476;2023-02-23T11:48:03;74.00;;;23.70;;
75542;SDS011;64129;53.508;10.476;2023-02-23T11:50:31;78.03;;;25.05;;
75542;SDS011;64129;53.508;10.476;2023-02-23T11:55:31;81.47;;;24.88;;
75542;SDS011;64129;53.508;10.476;2023-02-23T12:00:58;72.28;;;24.00;;
75542;SDS011;64129;53.508;10.476;2023-02-23T12:03:28;74.50;;;23.88;;
75542;SDS011;64129;53.508;10.476;2023-02-23T12:05:57;74.97;;;22.85;;
75542;SDS011;64129;53.508;10.476;2023-02-23T12:11:09;81.65;;;26.00;;
75542;SDS011;64129;53.508;10.476;2023-02-23T12:13:46;83.25;;;23.98;;
75542;SDS011;64129;53.508;10.476;2023-02-23T12:16:23;76.97;;;25.10;;
75542;SDS011;64129;53.508;10.476;2023-02-23T12:18:58;87.18;;;26.00;;
75542;SDS011;64129;53.508;10.476;2023-02-23T12:21:30;76.00;;;23.05;;
75542;SDS011;64129;53.508;10.476;2023-02-23T12:24:11;82.22;;;24.65;;
75542;SDS011;64129;53.508;10.476;2023-02-23T12:26:50;83.45;;;25.13;;
75542;SDS011;64129;53.508;10.476;2023-02-23T12:29:30;80.72;;;24.63;;
75542;SDS011;64129;53.508;10.476;2023-02-23T12:32:03;88.78;;;26.38;;
75542;SDS011;64129;53.508;10.476;2023-02-23T12:45:49;70.93;;;23.95;;
75542;SDS011;64129;53.508;10.476;2023-02-23T12:48:27;70.18;;;22.88;;
75542;SDS011;64129;53.508;10.476;2023-02-23T12:51:01;72.95;;;21.20;;
75542;SDS011;64129;53.508;10.476;2023-02-23T12:53:41;75.22;;;22.92;;
75542;SDS011;64129;53.508;10.476;2023-02-23T13:01:42;65.55;;;22.33;;
75542;SDS011;64129;53.508;10.476;2023-02-23T13:04:21;68.93;;;21.38;;
75542;SDS011;64129;53.508;10.476;2023-02-23T13:06:55;60.95;;;20.27;;
75542;SDS011;64129;53.508;10.476;2023-02-23T13:15:21;66.88;;;19.75;;
75542;SDS011;64129;53.508;10.476;2023-02-23T13:22:58;47.63;;;16.92;;
75542;SDS011;64129;53.508;10.476;2023-02-23T13:28:38;63.20;;;20.75;;
75542;SDS011;64129;53.508;10.476;2023-02-23T13:31:18;63.03;;;19.95;;
75542;SDS011;64129;53.508;10.476;2023-02-23T13:33:49;65.80;;;20.58;;
75542;SDS011;64129;53.508;10.476;2023-02-23T13:36:18;60.70;;;20.30;;
75542;SDS011;64129;53.508;10.476;2023-02-23T13:41:19;56.33;;;18.55;;
75542;SDS011;64129;53.508;10.476;2023-02-23T13:44:14;57.60;;;18.88;;
75542;SDS011;64129;53.508;10.476;2023-02-23T13:47:05;63.15;;;19.10;;
75542;SDS011;64129;53.508;10.476;2023-02-23T13:49:42;58.78;;;20.63;;
75542;SDS011;64129;53.508;10.476;2023-02-23T13:52:28;64.78;;;19.42;;
75542;SDS011;64129;53.508;10.476;2023-02-23T14:00:40;62.63;;;19.70;;
75542;SDS011;64129;53.508;10.476;2023-02-23T14:03:19;64.22;;;20.38;;
75542;SDS011;64129;53.508;10.476;2023-02-23T14:05:49;63.13;;;19.20;;
75542;SDS011;64129;53.508;10.476;2023-02-23T14:08:24;56.75;;;19.20;;
75542;SDS011;64129;53.508;10.476;2023-02-23T14:10:58;55.70;;;17.83;;
75542;SDS011;64129;53.508;10.476;2023-02-23T14:16:11;58.75;;;17.15;;
75542;SDS011;64129;53.508;10.476;2023-02-23T14:21:50;57.17;;;17.10;;
75542;SDS011;64129;53.508;10.476;2023-02-23T14:29:39;58.67;;;19.35;;
75542;SDS011;64129;53.508;10.476;2023-02-23T14:34:54;56.17;;;19.00;;
75542;SDS011;64129;53.508;10.476;2023-02-23T14:40:02;50.22;;;17.23;;
75542;SDS011;64129;53.508;10.476;2023-02-23T14:42:55;53.08;;;16.33;;
75542;SDS011;64129;53.508;10.476;2023-02-23T14:45:24;51.25;;;16.30;;
75542;SDS011;64129;53.508;10.476;2023-02-23T14:48:14;47.10;;;16.23;;
75542;SDS011;64129;53.508;10.476;2023-02-23T14:50:43;43.42;;;15.48;;
75542;SDS011;64129;53.508;10.476;2023-02-23T14:53:12;45.63;;;16.33;;
75542;SDS011;64129;53.508;10.476;2023-02-23T14:55:45;51.55;;;17.65;;
75542;SDS011;64129;53.508;10.476;2023-02-23T14:58:18;45.35;;;15.35;;
75542;SDS011;64129;53.508;10.476;2023-02-23T15:00:46;49.53;;;16.67;;
75542;SDS011;64129;53.508;10.476;2023-02-23T15:03:14;51.78;;;16.35;;
75542;SDS011;64129;53.508;10.476;2023-02-23T15:05:41;42.88;;;14.75;;
75542;SDS011;64129;53.508;10.476;2023-02-23T15:08:17;46.97;;;15.30;;
75542;SDS011;64129;53.508;10.476;2023-02-23T15:10:49;48.00;;;15.77;;
75542;SDS011;64129;53.508;10.476;2023-02-23T15:13:27;42.70;;;14.82;;
75542;SDS011;64129;53.508;10.476;2023-02-23T15:16:04;48.17;;;15.80;;
75542;SDS011;64129;53.508;10.476;2023-02-23T15:21:57;42.28;;;14.57;;
75542;SDS011;64129;53.508;10.476;2023-02-23T15:24:30;34.83;;;12.45;;
75542;SDS011;64129;53.508;10.476;2023-02-23T15:29:41;35.72;;;12.93;;
75542;SDS011;64129;53.508;10.476;2023-02-23T15:32:12;37.63;;;13.88;;
75542;SDS011;64129;53.508;10.476;2023-02-23T15:34:44;37.38;;;12.25;;
75542;SDS011;64129;53.508;10.476;2023-02-23T15:37:25;36.45;;;12.57;;
75542;SDS011;64129;53.508;10.476;2023-02-23T15:40:08;35.95;;;12.52;;
75542;SDS011;64129;53.508;10.476;2023-02-23T15:42:53;37.53;;;12.85;;
75542;SDS011;64129;53.508;10.476;2023-02-23T15:45:34;33.55;;;11.98;;
75542;SDS011;64129;53.508;10.476;2023-02-23T15:48:10;34.88;;;10.35;;
75542;SDS011;64129;53.508;10.476;2023-02-23T15:50:44;28.55;;;10.90;;
75542;SDS011;64129;53.508;10.476;2023-02-23T15:53:37;31.80;;;10.88;;
75542;SDS011;64129;53.508;10.476;2023-02-23T15:56:12;27.65;;;11.18;;
75542;SDS011;64129;53.508;10.476;2023-02-23T15:58:47;27.95;;;10.52;;
75542;SDS011;64129;53.508;10.476;2023-02-23T16:01:23;30.50;;;10.18;;
75542;SDS011;64129;53.508;10.476;2023-02-23T16:03:59;29.67;;;10.20;;
75542;SDS011;64129;53.508;10.476;2023-02-23T16:14:26;25.13;;;10.05;;
75542;SDS011;64129;53.508;10.476;2023-02-23T16:16:57;22.33;;;8.85;;
75542;SDS011;64129;53.508;10.476;2023-02-23T16:19:35;25.88;;;8.07;;
75542;SDS011;64129;53.508;10.476;2023-02-23T16:22:06;24.95;;;8.55;;
75542;SDS011;64129;53.508;10.476;2023-02-23T16:24:43;22.77;;;7.82;;
75542;SDS011;64129;53.508;10.476;2023-02-23T16:27:09;21.88;;;8.32;;
75542;SDS011;64129;53.508;10.476;2023-02-23T16:29:38;22.40;;;8.55;;
75542;SDS011;64129;53.508;10.476;2023-02-23T16:32:19;22.92;;;7.85;;
75542;SDS011;64129;53.508;10.476;2023-02-23T16:34:50;24.35;;;8.07;;
75542;SDS011;64129;53.508;10.476;2023-02-23T16:37:22;24.23;;;9.05;;
75542;SDS011;64129;53.508;10.476;2023-02-23T16:39:51;26.25;;;9.30;;
75542;SDS011;64129;53.508;10.476;2023-02-23T16:42:31;22.88;;;8.25;;
75542;SDS011;64129;53.508;10.476;2023-02-23T16:44:59;23.08;;;8.15;;
75542;SDS011;64129;53.508;10.476;2023-02-23T16:47:31;26.90;;;9.63;;
75542;SDS011;64129;53.508;10.476;2023-02-23T16:50:10;26.50;;;8.60;;
75542;SDS011;64129;53.508;10.476;2023-02-23T16:52:45;22.48;;;8.50;;
75542;SDS011;64129;53.508;10.476;2023-02-23T16:55:17;24.58;;;8.25;;
75542;SDS011;64129;53.508;10.476;2023-02-23T16:57:52;23.23;;;9.10;;
75542;SDS011;64129;53.508;10.476;2023-02-23T17:00:22;20.42;;;8.30;;
75542;SDS011;64129;53.508;10.476;2023-02-23T17:02:51;22.50;;;8.20;;
75542;SDS011;64129;53.508;10.476;2023-02-23T17:05:19;23.60;;;8.35;;
75542;SDS011;64129;53.508;10.476;2023-02-23T17:07:49;27.00;;;8.60;;
75542;SDS011;64129;53.508;10.476;2023-02-23T17:10:18;22.80;;;8.77;;
75542;SDS011;64129;53.508;10.476;2023-02-23T17:12:51;24.27;;;9.77;;